Time;durP1;ratioP1;P1;durP2;ratioP2;P2;SDS_P1;SDS_P2;PMS_P1;PMS_P2;Temp;Humidity;BMP_temperature;BMP_pressure;BME280_temperature;BME280_humidity;BME280_pressure;Samples;Min_cycle;Max_cycle;Signal;HPM_P1;HPM_P2
2023/10/14 00:00:46;;;;;;;6.68;1.80;;;13.10;99.90;;;;;;4997613;28;20069;-83
2023/10/14 00:03:27;;;;;;;2.13;1.33;;;13.10;99.90;;;;;;5013876;28;20053;-83
2023/10/14 00:05:55;;;;;;;6.78;1.80;;;13.10;99.90;;;;;;4983896;28;20096;-84
2023/10/14 00:08:22;;;;;;;6.50;1.60;;;13.00;99.90;;;;;;4991995;28;20030;-83
2023/10/14 00:10:50;;;;;;;4.35;1.48;;;13.10;99.90;;;;;;5007606;28;20068;-84
2023/10/14 00:13:16;;;;;;;3.47;1.50;;;13.00;99.90;;;;;;4997417;28;20056;-84
2023/10/14 00:15:43;;;;;;;5.93;1.67;;;12.90;99.90;;;;;;4997576;28;20050;-85
2023/10/14 00:18:08;;;;;;;7.15;2.03;;;12.90;99.90;;;;;;4997375;28;20041;-84
2023/10/14 00:20:35;;;;;;;3.83;1.25;;;12.90;99.90;;;;;;5013512;28;20038;-84
2023/10/14 00:23:04;;;;;;;3.65;1.50;;;12.90;99.90;;;;;;4997570;28;20060;-85
2023/10/14 00:25:34;;;;;;;5.90;1.95;;;12.90;99.90;;;;;;4976830;28;20084;-85
2023/10/14 00:28:12;;;;;;;5.43;1.70;;;12.90;99.90;;;;;;4988343;28;20037;-85
2023/10/14 00:30:38;;;;;;;10.50;2.15;;;12.90;99.90;;;;;;4996440;28;20440;-85
2023/10/14 00:33:04;;;;;;;7.25;1.70;;;12.90;99.90;;;;;;4964509;28;20034;-83
2023/10/14 00:35:31;;;;;;;8.05;2.22;;;12.90;99.90;;;;;;4980792;28;20485;-83
2023/10/14 00:38:02;;;;;;;5.30;1.63;;;12.80;99.90;;;;;;4996788;28;20124;-84
2023/10/14 00:40:28;;;;;;;4.10;1.75;;;12.80;99.90;;;;;;4996887;28;20050;-84
2023/10/14 00:42:56;;;;;;;4.18;2.10;;;12.80;99.90;;;;;;4996096;28;20417;-82
2023/10/14 00:45:22;;;;;;;6.40;2.13;;;12.80;99.90;;;;;;4981009;28;20042;-82
2023/10/14 00:47:49;;;;;;;6.82;2.38;;;12.80;99.90;;;;;;4977483;28;20041;-84
2023/10/14 00:52:54;;;;;;;6.10;2.22;;;12.80;99.90;;;;;;5013173;28;20104;-82
2023/10/14 00:55:35;;;;;;;7.38;2.03;;;12.80;99.90;;;;;;4996880;28;20045;-80
2023/10/14 00:58:01;;;;;;;7.00;2.30;;;12.80;99.90;;;;;;4997971;28;20115;-80
2023/10/14 01:00:46;;;;;;;10.15;2.42;;;12.80;99.90;;;;;;4961515;28;20489;-80
2023/10/14 01:03:15;;;;;;;9.15;2.70;;;12.80;99.90;;;;;;4996528;28;20041;-82
2023/10/14 01:05:41;;;;;;;10.15;2.45;;;12.70;99.90;;;;;;5012870;28;20497;-78
2023/10/14 01:08:13;;;;;;;8.02;2.40;;;12.60;99.90;;;;;;4996323;28;20049;-83
2023/10/14 01:10:39;;;;;;;8.80;2.70;;;12.60;99.90;;;;;;4991653;28;20100;-82
2023/10/14 01:13:13;;;;;;;8.93;2.50;;;12.50;99.90;;;;;;4996125;28;20289;-82
2023/10/14 01:15:47;;;;;;;7.93;2.45;;;12.40;99.90;;;;;;4996342;28;20048;-78
2023/10/14 01:18:14;;;;;;;11.80;3.15;;;12.40;99.90;;;;;;5012364;28;20560;-81
2023/10/14 01:20:41;;;;;;;9.52;2.58;;;12.30;99.90;;;;;;4996463;28;20069;-81
2023/10/14 01:23:07;;;;;;;8.10;2.78;;;12.30;99.90;;;;;;4996021;28;20473;-80
2023/10/14 01:26:03;;;;;;;13.80;3.08;;;12.20;99.90;;;;;;4996192;28;20080;-82
2023/10/14 01:28:23;;;;;;;9.23;2.90;;;12.20;99.90;;;;;;4998437;28;20520;-81
2023/10/14 01:31:34;;;;;;;14.25;3.25;;;12.20;99.90;;;;;;4961187;28;20046;-81
2023/10/14 01:34:05;;;;;;;12.85;3.10;;;12.10;99.90;;;;;;5002944;28;20046;-79
2023/10/14 01:36:37;;;;;;;11.27;3.15;;;12.00;99.90;;;;;;4996452;28;20057;-79
2023/10/14 01:39:12;;;;;;;10.43;3.20;;;12.00;99.90;;;;;;4977595;28;20322;-78
2023/10/14 01:41:38;;;;;;;14.95;3.15;;;12.00;99.90;;;;;;5009079;28;20050;-78
2023/10/14 01:44:05;;;;;;;16.17;3.83;;;11.90;99.90;;;;;;4995591;28;20057;-78
2023/10/14 01:46:37;;;;;;;8.75;2.47;;;11.90;99.90;;;;;;4979222;28;20069;-80
2023/10/14 01:49:17;;;;;;;15.07;3.37;;;11.80;99.90;;;;;;4989382;28;20044;-79
2023/10/14 01:51:43;;;;;;;15.48;3.38;;;11.80;99.90;;;;;;4992770;28;20046;-80
2023/10/14 01:54:10;;;;;;;12.95;3.85;;;11.70;99.90;;;;;;5011799;28;20493;-80
2023/10/14 01:56:37;;;;;;;12.82;3.33;;;11.60;99.90;;;;;;5010688;28;20416;-80
2023/10/14 01:59:03;;;;;;;12.80;3.83;;;11.60;99.90;;;;;;4993414;28;20046;-79
2023/10/14 02:01:34;;;;;;;19.13;4.05;;;11.50;99.90;;;;;;4967025;28;20493;-79
2023/10/14 02:04:00;;;;;;;13.48;3.67;;;11.40;99.90;;;;;;4994298;28;20547;-77
2023/10/14 02:06:30;;;;;;;16.38;3.78;;;11.40;99.90;;;;;;4995215;28;20109;-79
2023/10/14 02:09:05;;;;;;;14.32;3.65;;;11.30;99.90;;;;;;5011965;28;20084;-78
2023/10/14 02:11:34;;;;;;;13.30;3.40;;;11.30;99.90;;;;;;5001760;28;20046;-79
2023/10/14 02:14:07;;;;;;;15.73;3.40;;;11.30;99.90;;;;;;4995006;28;20757;-78
2023/10/14 02:16:44;;;;;;;15.05;3.72;;;11.20;99.90;;;;;;4980158;28;20034;-79
2023/10/14 02:19:21;;;;;;;17.83;3.88;;;11.10;99.90;;;;;;5011441;28;20042;-79
2023/10/14 02:24:42;;;;;;;15.32;3.83;;;11.10;99.90;;;;;;4973608;28;20109;-78
2023/10/14 02:27:12;;;;;;;15.75;3.78;;;11.00;99.90;;;;;;4979067;28;20309;-79
2023/10/14 02:29:44;;;;;;;12.65;3.78;;;11.00;99.90;;;;;;5011660;28;20125;-79
2023/10/14 02:32:13;;;;;;;16.50;3.78;;;11.00;99.90;;;;;;4978721;28;20053;-77
2023/10/14 02:34:40;;;;;;;14.73;4.22;;;11.00;99.90;;;;;;4994799;28;20572;-77
2023/10/14 02:37:07;;;;;;;12.30;3.55;;;10.90;99.90;;;;;;4979175;28;20046;-78
2023/10/14 02:39:33;;;;;;;13.23;3.33;;;11.00;99.90;;;;;;4994893;28;20045;-78
2023/10/14 02:41:59;;;;;;;17.00;3.97;;;10.90;99.90;;;;;;4994697;28;20205;-79
2023/10/14 02:44:32;;;;;;;15.30;3.70;;;10.90;99.90;;;;;;4994637;28;20042;-79
2023/10/14 02:47:05;;;;;;;12.50;3.65;;;10.80;99.90;;;;;;5000303;28;20042;-78
2023/10/14 02:49:40;;;;;;;16.77;3.80;;;10.80;99.90;;;;;;5011214;28;20045;-79
2023/10/14 02:52:18;;;;;;;14.77;4.03;;;10.80;99.90;;;;;;4977859;28;20057;-80
2023/10/14 02:54:54;;;;;;;20.05;4.30;;;10.70;99.90;;;;;;5011641;28;20050;-80
2023/10/14 02:57:26;;;;;;;11.38;3.88;;;10.70;99.90;;;;;;5007691;28;20421;-78
2023/10/14 02:59:55;;;;;;;14.85;3.72;;;10.60;99.90;;;;;;4992109;28;20042;-78
2023/10/14 03:05:16;;;;;;;13.68;3.58;;;10.60;99.90;;;;;;5011373;28;20381;-79
2023/10/14 03:08:36;;;;;;;20.88;4.03;;;10.50;99.90;;;;;;5010440;28;20042;-79
2023/10/14 03:10:35;;;;;;;14.73;3.50;;;10.50;99.90;;;;;;4985405;28;20054;-79
2023/10/14 03:13:00;;;;;;;14.95;3.92;;;10.50;99.90;;;;;;5000327;28;20501;-78
2023/10/14 03:15:32;;;;;;;15.80;3.60;;;10.40;99.90;;;;;;4998304;28;20087;-78
2023/10/14 03:17:58;;;;;;;18.88;3.97;;;10.40;99.90;;;;;;4998587;28;20121;-78
2023/10/14 03:22:59;;;;;;;17.05;3.90;;;10.40;99.90;;;;;;5013245;28;20057;-77
2023/10/14 03:25:27;;;;;;;10.95;3.28;;;10.30;99.90;;;;;;5014811;28;20396;-78
2023/10/14 03:28:28;;;;;;;17.95;3.95;;;10.20;99.90;;;;;;4982244;28;20034;-78
2023/10/14 03:30:48;;;;;;;14.32;3.63;;;10.20;99.90;;;;;;5010411;28;20053;-77
2023/10/14 03:33:20;;;;;;;12.88;3.63;;;10.10;99.90;;;;;;5014944;28;20049;-79
2023/10/14 03:35:56;;;;;;;15.88;3.58;;;10.10;99.90;;;;;;4978516;28;20046;-78
2023/10/14 03:38:25;;;;;;;19.65;4.35;;;10.10;99.90;;;;;;5002222;28;20123;-77
2023/10/14 03:41:10;;;;;;;15.73;3.80;;;10.00;99.90;;;;;;5014106;28;20049;-78
2023/10/14 03:43:47;;;;;;;12.52;3.53;;;10.00;99.90;;;;;;5003198;28;20038;-78
2023/10/14 03:46:14;;;;;;;12.82;3.60;;;10.00;99.90;;;;;;4998285;28;20464;-78
2023/10/14 03:48:47;;;;;;;17.27;4.15;;;9.90;99.90;;;;;;4997886;28;20033;-77
2023/10/14 03:51:38;;;;;;;17.50;3.90;;;9.90;99.90;;;;;;5015463;28;20104;-78
2023/10/14 03:54:08;;;;;;;17.92;3.97;;;9.90;99.90;;;;;;5000883;28;20049;-77
2023/10/14 03:56:35;;;;;;;14.10;3.53;;;9.90;99.90;;;;;;5014333;28;20092;-78
2023/10/14 03:59:02;;;;;;;12.43;3.25;;;9.80;99.90;;;;;;4984269;28;20052;-77
2023/10/14 04:01:34;;;;;;;9.55;3.58;;;9.80;99.90;;;;;;5013975;28;20386;-77
2023/10/14 04:04:12;;;;;;;12.38;3.53;;;9.80;99.90;;;;;;5013751;28;20045;-77
2023/10/14 04:06:41;;;;;;;17.52;4.57;;;9.80;99.90;;;;;;4999575;28;20097;-77
2023/10/14 04:09:08;;;;;;;15.13;3.80;;;9.70;99.90;;;;;;4997760;28;20054;-77
2023/10/14 04:11:38;;;;;;;12.73;3.92;;;9.70;99.90;;;;;;4997019;28;20160;-78
2023/10/14 04:14:07;;;;;;;14.18;4.15;;;9.70;99.90;;;;;;4997835;28;20050;-77
2023/10/14 04:19:27;;;;;;;16.48;4.15;;;9.60;99.90;;;;;;5013928;28;20222;-78
2023/10/14 04:21:58;;;;;;;16.10;3.95;;;9.60;99.90;;;;;;4994459;28;20054;-78
2023/10/14 04:27:21;;;;;;;19.02;4.60;;;9.50;99.90;;;;;;4997865;28;20037;-78
2023/10/14 04:29:53;;;;;;;20.58;3.78;;;9.50;99.90;;;;;;4999523;28;20049;-78
2023/10/14 04:32:27;;;;;;;20.02;5.20;;;9.50;99.90;;;;;;4996994;28;20049;-78
2023/10/14 04:34:55;;;;;;;14.48;4.20;;;9.50;99.90;;;;;;4985223;28;20114;-78
2023/10/14 04:37:21;;;;;;;15.82;4.03;;;9.50;99.90;;;;;;4980710;28;20042;-78
2023/10/14 04:39:49;;;;;;;14.23;3.45;;;9.40;99.90;;;;;;4996466;28;20091;-78
2023/10/14 04:44:59;;;;;;;16.02;4.03;;;9.50;99.90;;;;;;4997477;28;20061;-77
2023/10/14 04:47:35;;;;;;;14.70;3.55;;;9.50;99.90;;;;;;4994480;28;20060;-77
2023/10/14 04:50:10;;;;;;;16.58;4.13;;;9.50;99.90;;;;;;5008388;28;20052;-77
2023/10/14 04:52:36;;;;;;;18.13;4.50;;;9.50;99.90;;;;;;5010087;28;20117;-78
2023/10/14 04:55:25;;;;;;;14.90;3.75;;;9.50;99.90;;;;;;4991323;28;20048;-76
2023/10/14 05:00:43;;;;;;;18.60;4.03;;;9.50;99.90;;;;;;5012970;28;20042;-77
2023/10/14 05:03:13;;;;;;;18.05;3.72;;;9.50;99.90;;;;;;4994057;28;20141;-78
2023/10/14 05:05:41;;;;;;;14.23;3.75;;;9.50;99.90;;;;;;4981101;28;20571;-78
2023/10/14 05:08:12;;;;;;;13.40;3.15;;;9.40;99.90;;;;;;5012783;28;20038;-77
2023/10/14 05:10:41;;;;;;;20.13;3.85;;;9.40;99.90;;;;;;4996077;28;20037;-77
2023/10/14 05:13:09;;;;;;;13.25;3.40;;;9.40;99.90;;;;;;4995583;28;20045;-77
2023/10/14 05:15:42;;;;;;;18.23;3.80;;;9.40;99.90;;;;;;5008737;28;20496;-77
2023/10/14 05:18:17;;;;;;;14.75;3.67;;;9.40;99.90;;;;;;5012492;28;20046;-77
2023/10/14 05:23:19;;;;;;;17.42;3.70;;;9.40;99.90;;;;;;5012012;28;20056;-77
2023/10/14 05:25:48;;;;;;;14.70;3.83;;;9.40;99.90;;;;;;5012393;28;20038;-80
2023/10/14 05:28:16;;;;;;;12.77;3.63;;;9.40;99.90;;;;;;4996371;28;20049;-77
2023/10/14 05:30:46;;;;;;;14.13;3.90;;;9.30;99.90;;;;;;5012573;28;20049;-77
2023/10/14 05:33:14;;;;;;;16.35;3.67;;;9.30;99.90;;;;;;5012449;28;20050;-77
2023/10/14 05:35:43;;;;;;;21.65;3.85;;;9.30;99.90;;;;;;4995850;28;20042;-78
2023/10/14 05:38:14;;;;;;;15.75;4.28;;;9.30;99.90;;;;;;4995960;28;20053;-77
2023/10/14 05:40:41;;;;;;;17.42;3.70;;;9.30;99.90;;;;;;4980035;28;20095;-78
2023/10/14 05:43:07;;;;;;;15.27;3.50;;;9.30;99.90;;;;;;5012127;28;20052;-78
2023/10/14 05:45:35;;;;;;;17.73;3.50;;;9.30;99.90;;;;;;4995969;28;20378;-78
2023/10/14 05:48:03;;;;;;;16.38;3.80;;;9.20;99.90;;;;;;4995737;28;20108;-77
2023/10/14 05:50:33;;;;;;;18.10;3.55;;;9.30;99.90;;;;;;4995868;28;20049;-78
2023/10/14 05:52:59;;;;;;;19.50;3.95;;;9.20;99.90;;;;;;4979771;28;20042;-77
2023/10/14 05:55:29;;;;;;;15.43;4.40;;;9.20;99.90;;;;;;4995124;28;20038;-78
2023/10/14 05:58:00;;;;;;;16.08;3.85;;;9.20;99.90;;;;;;4995566;28;20080;-78
2023/10/14 06:00:27;;;;;;;;;;;9.20;99.90;;;;;;4995806;28;20117;-77
2023/10/14 06:02:57;;;;;;;15.38;3.40;;;9.10;99.90;;;;;;5011344;28;20017;-77
2023/10/14 06:05:29;;;;;;;17.13;3.95;;;9.10;99.90;;;;;;4994979;28;20045;-77
2023/10/14 06:08:05;;;;;;;14.82;3.80;;;9.10;99.90;;;;;;5011579;28;20038;-78
2023/10/14 06:10:36;;;;;;;17.00;4.55;;;9.10;99.90;;;;;;4978850;28;20477;-77
2023/10/14 06:13:05;;;;;;;12.07;3.75;;;9.10;99.90;;;;;;4995748;28;20041;-77
2023/10/14 06:15:36;;;;;;;16.80;4.00;;;9.10;99.90;;;;;;4978927;28;20052;-78
2023/10/14 06:18:04;;;;;;;12.77;4.07;;;9.10;99.90;;;;;;5011248;28;20061;-78
2023/10/14 06:20:32;;;;;;;19.95;3.80;;;9.10;99.90;;;;;;4994899;28;20049;-78
2023/10/14 06:22:59;;;;;;;22.33;4.72;;;9.00;99.90;;;;;;4995566;28;20042;-78
2023/10/14 06:25:29;;;;;;;20.08;3.78;;;9.00;99.90;;;;;;4979199;28;20042;-79
2023/10/14 06:27:55;;;;;;;16.27;3.78;;;9.00;99.90;;;;;;5011447;28;20108;-78
2023/10/14 06:30:21;;;;;;;15.07;3.40;;;9.00;99.90;;;;;;5011297;28;20092;-78
2023/10/14 06:32:54;;;;;;;17.35;4.55;;;9.00;99.90;;;;;;4994916;28;20519;-78
2023/10/14 06:35:20;;;;;;;;;;;9.00;99.90;;;;;;5011969;28;20120;-78
2023/10/14 06:37:46;;;;;;;17.60;4.18;;;9.00;99.90;;;;;;4994607;28;20292;-79
2023/10/14 06:40:14;;;;;;;13.80;3.72;;;9.00;99.90;;;;;;4993191;28;20041;-78
2023/10/14 06:42:48;;;;;;;10.13;3.47;;;9.00;99.90;;;;;;5005779;28;20497;-78
2023/10/14 06:45:14;;;;;;;17.55;4.30;;;9.00;99.90;;;;;;5011038;28;20042;-79
2023/10/14 06:47:49;;;;;;;17.42;3.88;;;9.00;99.90;;;;;;4987027;28;20110;-78
2023/10/14 06:50:23;;;;;;;17.25;3.88;;;9.00;99.90;;;;;;4999839;28;20049;-79
2023/10/14 06:52:50;;;;;;;14.85;4.63;;;9.00;99.90;;;;;;5017656;28;20049;-79
2023/10/14 06:55:21;;;;;;;14.20;3.22;;;9.00;99.90;;;;;;4985213;28;20053;-79
2023/10/14 06:57:51;;;;;;;16.40;3.97;;;9.00;99.90;;;;;;4986925;28;20520;-80
2023/10/14 07:00:25;;;;;;;17.80;3.75;;;9.00;99.90;;;;;;4967774;28;20038;-78
2023/10/14 07:02:54;;;;;;;17.73;3.92;;;9.00;99.90;;;;;;5002187;28;20139;-78
2023/10/14 07:05:21;;;;;;;18.52;4.10;;;9.10;99.90;;;;;;5000971;28;20042;-78
2023/10/14 07:07:47;;;;;;;17.50;4.25;;;9.10;99.90;;;;;;5000905;28;20044;-78
2023/10/14 07:10:13;;;;;;;21.63;4.22;;;9.10;99.90;;;;;;5017398;28;20508;-79
2023/10/14 07:12:39;;;;;;;15.10;3.97;;;9.10;99.90;;;;;;5000721;28;20038;-77
2023/10/14 07:15:12;;;;;;;17.58;3.92;;;9.10;99.90;;;;;;5001028;28;20443;-78
2023/10/14 07:17:42;;;;;;;19.65;4.15;;;9.10;99.90;;;;;;5017588;28;20042;-79
2023/10/14 07:20:12;;;;;;;17.05;4.47;;;9.20;99.90;;;;;;5001214;28;20517;-79
2023/10/14 07:22:42;;;;;;;13.23;5.43;;;9.20;99.90;;;;;;5017245;28;20041;-78
2023/10/14 07:25:11;;;;;;;14.82;4.43;;;9.20;99.90;;;;;;5017371;28;20037;-79
2023/10/14 07:27:40;;;;;;;15.95;4.93;;;9.30;99.90;;;;;;5001199;28;20050;-78
2023/10/14 07:30:16;;;;;;;19.70;4.25;;;9.30;99.90;;;;;;4981529;28;20048;-78
2023/10/14 07:32:46;;;;;;;18.13;3.90;;;9.40;99.90;;;;;;5014085;28;20080;-80
2023/10/14 07:35:16;;;;;;;15.02;3.65;;;9.40;99.90;;;;;;5000728;28;20048;-77
2023/10/14 07:37:44;;;;;;;16.33;3.85;;;9.50;99.90;;;;;;5017263;28;20050;-78
2023/10/14 07:40:11;;;;;;;13.77;4.15;;;9.50;99.90;;;;;;4984591;28;20152;-79
2023/10/14 07:42:38;;;;;;;12.75;4.10;;;9.60;99.90;;;;;;5016787;28;20052;-79
2023/10/14 07:45:11;;;;;;;14.38;4.13;;;9.70;99.90;;;;;;4985165;28;20392;-80
2023/10/14 07:47:38;;;;;;;16.42;4.00;;;9.70;99.90;;;;;;5000769;28;20129;-80
2023/10/14 07:50:09;;;;;;;18.48;4.60;;;9.80;99.90;;;;;;5000416;28;20050;-79
2023/10/14 07:52:37;;;;;;;16.02;4.65;;;9.90;99.90;;;;;;4985410;28;20073;-80
2023/10/14 07:55:16;;;;;;;19.10;4.10;;;9.90;99.90;;;;;;5000729;28;20092;-79
2023/10/14 07:57:42;;;;;;;14.23;4.53;;;10.00;99.90;;;;;;4999854;28;20129;-80
2023/10/14 08:00:12;;;;;;;22.73;4.40;;;10.00;99.90;;;;;;5009988;28;20037;-79
2023/10/14 08:02:39;;;;;;;15.32;4.10;;;10.00;99.90;;;;;;5014201;28;20038;-80
2023/10/14 08:05:07;;;;;;;10.57;3.83;;;10.10;99.90;;;;;;4997945;28;20448;-80
2023/10/14 08:07:42;;;;;;;13.60;4.10;;;10.10;99.90;;;;;;4997115;28;20030;-79
2023/10/14 08:10:18;;;;;;;15.32;4.03;;;10.20;99.90;;;;;;4998626;28;20501;-80
2023/10/14 08:12:47;;;;;;;17.40;4.00;;;10.30;99.90;;;;;;4997610;28;20136;-80
2023/10/14 08:15:14;;;;;;;18.50;3.78;;;10.40;99.90;;;;;;5007437;28;20042;-79
2023/10/14 08:17:43;;;;;;;16.98;4.45;;;10.40;99.90;;;;;;4997427;28;20044;-81
2023/10/14 08:20:12;;;;;;;13.07;4.43;;;10.40;99.90;;;;;;5013755;28;20038;-79
2023/10/14 08:22:44;;;;;;;14.32;4.20;;;10.50;99.90;;;;;;4997517;28;20477;-80
2023/10/14 08:25:15;;;;;;;;;;;10.70;99.90;;;;;;5013535;28;20084;-82
2023/10/14 08:27:41;;;;;;;18.08;4.45;;;10.80;99.90;;;;;;4997141;28;19917;-79
2023/10/14 08:30:11;;;;;;;17.08;4.47;;;10.80;99.90;;;;;;4981245;28;20034;-81
2023/10/14 08:32:40;;;;;;;16.33;4.40;;;10.80;99.90;;;;;;4996854;28;20489;-80
2023/10/14 08:35:15;;;;;;;16.58;4.10;;;10.80;99.90;;;;;;4980999;28;20050;-81
2023/10/14 08:37:49;;;;;;;18.90;4.95;;;10.90;99.90;;;;;;5013567;28;20129;-79
2023/10/14 08:40:20;;;;;;;17.65;4.43;;;10.90;99.90;;;;;;4997686;28;20045;-79
2023/10/14 08:42:51;;;;;;;14.93;3.90;;;10.90;99.90;;;;;;4996996;28;20034;-81
2023/10/14 08:45:20;;;;;;;12.20;4.00;;;11.10;99.90;;;;;;4996642;28;20041;-80
2023/10/14 08:47:51;;;;;;;17.25;4.00;;;11.10;99.90;;;;;;4981376;28;20076;-80
2023/10/14 08:50:23;;;;;;;17.00;4.07;;;11.20;99.90;;;;;;5010025;28;20125;-78
2023/10/14 08:52:54;;;;;;;12.75;3.92;;;11.30;99.90;;;;;;5003891;28;20038;-79
2023/10/14 08:55:20;;;;;;;15.73;4.63;;;11.40;99.90;;;;;;4996929;28;20099;-83
2023/10/14 08:57:48;;;;;;;13.25;4.32;;;11.50;99.90;;;;;;5012725;28;20440;-83
2023/10/14 09:00:20;;;;;;;12.73;3.40;;;11.60;99.90;;;;;;5012810;28;20089;-82
2023/10/14 09:02:55;;;;;;;11.25;3.70;;;11.80;99.90;;;;;;5012378;28;20041;-82
2023/10/14 09:05:23;;;;;;;16.10;4.40;;;11.90;99.90;;;;;;4996414;28;20034;-81
2023/10/14 09:07:49;;;;;;;15.52;3.97;;;12.00;99.90;;;;;;5012632;28;20555;-80
2023/10/14 09:10:19;;;;;;;16.50;4.30;;;12.20;99.90;;;;;;5012113;28;20053;-80
2023/10/14 09:13:08;;;;;;;10.85;3.40;;;12.30;99.90;;;;;;4982837;28;20117;-79
2023/10/14 09:15:39;;;;;;;13.40;4.07;;;12.40;99.90;;;;;;4996217;28;20100;-79
2023/10/14 09:18:13;;;;;;;14.57;3.67;;;12.50;99.90;;;;;;5012649;28;20050;-81
2023/10/14 09:20:39;;;;;;;15.93;3.97;;;12.50;99.90;;;;;;5012130;28;20523;-79
2023/10/14 09:23:27;;;;;;;12.13;3.97;;;12.50;99.90;;;;;;5012437;28;20073;-80
2023/10/14 09:25:58;;;;;;;12.77;4.03;;;12.60;99.90;;;;;;5000657;28;20510;-80
2023/10/14 09:28:26;;;;;;;15.60;3.70;;;12.70;99.90;;;;;;5012265;28;20034;-80
2023/10/14 09:30:56;;;;;;;11.27;3.08;;;12.70;99.90;;;;;;4995875;28;20050;-80
2023/10/14 09:33:34;;;;;;;19.55;3.88;;;12.80;99.90;;;;;;5012374;28;20057;-79
2023/10/14 09:36:18;;;;;;;13.45;3.70;;;12.90;99.90;;;;;;4996098;28;20092;-81
2023/10/14 09:38:51;;;;;;;14.68;3.92;;;13.00;99.90;;;;;;5011605;28;20056;-79
2023/10/14 09:41:17;;;;;;;14.98;3.47;;;13.10;99.90;;;;;;4979595;28;20034;-80
2023/10/14 09:43:43;;;;;;;12.45;4.15;;;13.10;99.90;;;;;;5012137;28;20050;-79
2023/10/14 09:46:17;;;;;;;13.43;3.58;;;13.20;99.90;;;;;;4995941;28;20042;-77
2023/10/14 09:48:46;;;;;;;9.77;3.85;;;13.20;99.90;;;;;;5011821;28;20041;-79
2023/10/14 09:51:15;;;;;;;13.00;3.60;;;13.20;99.90;;;;;;5011952;28;20515;-79
2023/10/14 09:53:40;;;;;;;8.70;3.20;;;13.30;99.90;;;;;;4995288;28;20045;-78
2023/10/14 09:56:10;;;;;;;8.82;3.42;;;13.30;99.90;;;;;;5011495;28;20100;-79
2023/10/14 09:58:41;;;;;;;12.15;3.58;;;13.40;99.90;;;;;;5011855;28;20077;-79
2023/10/14 10:01:14;;;;;;;10.98;3.25;;;13.50;99.90;;;;;;5011812;28;20045;-80
2023/10/14 10:04:00;;;;;;;17.27;3.72;;;13.50;99.90;;;;;;5011659;28;20038;-78
2023/10/14 10:06:49;;;;;;;13.40;3.08;;;13.50;99.90;;;;;;4995181;28;20053;-81
2023/10/14 10:09:35;;;;;;;13.65;3.40;;;13.50;99.90;;;;;;5011585;28;20570;-79
2023/10/14 10:12:08;;;;;;;12.70;3.90;;;13.60;99.90;;;;;;4994880;28;20038;-80
2023/10/14 10:14:44;;;;;;;13.63;3.45;;;13.60;99.90;;;;;;4995616;28;20550;-80
2023/10/14 10:17:11;;;;;;;10.95;3.50;;;13.80;99.90;;;;;;5011375;28;20041;-82
2023/10/14 10:19:58;;;;;;;11.35;2.97;;;13.80;99.90;;;;;;4995401;28;20038;-78
2023/10/14 10:22:25;;;;;;;12.27;3.53;;;14.00;99.90;;;;;;5010610;28;20057;-79
2023/10/14 10:24:53;;;;;;;9.43;3.00;;;14.10;99.90;;;;;;5011287;28;20038;-80
2023/10/14 10:27:20;;;;;;;9.25;3.08;;;14.30;99.90;;;;;;5000142;28;20054;-82
2023/10/14 10:29:55;;;;;;;15.18;3.53;;;14.30;99.90;;;;;;4994895;28;20034;-83
2023/10/14 10:32:31;;;;;;;11.13;4.00;;;14.20;99.90;;;;;;5011511;28;20143;-82
2023/10/14 10:35:05;;;;;;;15.23;3.65;;;14.30;99.90;;;;;;4998708;28;20386;-84
2023/10/14 10:37:43;;;;;;;12.55;3.50;;;14.20;99.90;;;;;;5011144;28;20512;-82
2023/10/14 10:40:10;;;;;;;9.85;3.00;;;14.10;99.90;;;;;;5010970;28;20050;-80
2023/10/14 10:42:47;;;;;;;12.27;3.22;;;13.90;99.90;;;;;;5010997;28;20049;-83
2023/10/14 10:45:26;;;;;;;10.70;3.20;;;13.80;99.90;;;;;;4994885;28;20571;-81
2023/10/14 10:47:56;;;;;;;11.13;3.08;;;13.80;99.90;;;;;;5011246;28;20038;-81
2023/10/14 10:50:36;;;;;;;12.30;3.10;;;13.80;99.90;;;;;;5011293;28;20049;-80
2023/10/14 10:53:07;;;;;;;8.27;2.97;;;14.00;99.90;;;;;;5010781;28;20107;-84
2023/10/14 10:55:36;;;;;;;10.40;2.85;;;14.10;99.90;;;;;;4994761;28;20096;-83
2023/10/14 10:58:03;;;;;;;8.18;2.53;;;14.10;99.90;;;;;;5010916;28;20505;-80
2023/10/14 11:00:32;;;;;;;9.13;2.60;;;14.30;99.90;;;;;;5010947;28;20536;-82
2023/10/14 11:03:00;;;;;;;11.05;2.63;;;14.30;99.90;;;;;;4994611;28;20044;-80
2023/10/14 11:05:28;;;;;;;12.38;2.90;;;14.30;99.90;;;;;;5010996;28;20038;-80
2023/10/14 11:07:55;;;;;;;7.90;3.20;;;14.30;99.90;;;;;;4994805;28;20049;-81
2023/10/14 11:10:33;;;;;;;8.93;2.22;;;14.40;99.90;;;;;;4994296;28;20116;-82
2023/10/14 11:12:59;;;;;;;8.07;2.50;;;14.60;99.90;;;;;;5010917;28;20050;-82
2023/10/14 11:15:26;;;;;;;6.57;2.47;;;14.70;99.90;;;;;;4978297;28;20052;-81
2023/10/14 11:17:59;;;;;;;8.15;2.58;;;15.00;99.90;;;;;;5010760;28;20544;-81
2023/10/14 11:20:31;;;;;;;;;;;14.90;99.90;;;;;;5011645;28;20042;-81
2023/10/14 11:22:58;;;;;;;6.80;2.33;;;14.30;99.90;;;;;;5011081;28;20269;-85
2023/10/14 11:25:24;;;;;;;6.43;2.13;;;13.40;99.90;;;;;;5011279;28;20045;-83
2023/10/14 11:27:51;;;;;;;9.05;1.92;;;12.80;99.90;;;;;;4994041;28;20040;-82
2023/10/14 11:30:18;;;;;;;7.78;2.30;;;12.30;99.90;;;;;;5010730;28;20042;-83
2023/10/14 11:32:48;;;;;;;7.60;2.13;;;12.10;99.90;;;;;;5010866;28;20120;-84
2023/10/14 11:35:23;;;;;;;7.18;2.53;;;12.00;99.90;;;;;;5013348;28;20053;-83
2023/10/14 11:37:53;;;;;;;7.50;2.15;;;12.10;99.90;;;;;;4995424;28;20046;-82
2023/10/14 11:40:19;;;;;;;6.75;1.88;;;12.10;99.90;;;;;;4971031;28;20038;-82
2023/10/14 11:42:46;;;;;;;5.65;2.00;;;12.30;99.90;;;;;;4997953;28;20069;-81
2023/10/14 11:45:17;;;;;;;5.65;1.88;;;12.40;99.90;;;;;;5014143;28;20042;-82
2023/10/14 11:47:44;;;;;;;9.05;2.03;;;12.50;99.90;;;;;;5014054;28;20548;-82
2023/10/14 11:50:13;;;;;;;10.57;2.42;;;12.70;99.90;;;;;;4995253;28;20069;-82
2023/10/14 11:52:43;;;;;;;7.93;2.47;;;12.90;99.90;;;;;;5014053;28;20501;-81
2023/10/14 11:55:16;;;;;;;7.13;2.03;;;12.90;99.90;;;;;;4997777;28;20042;-82
2023/10/14 11:57:46;;;;;;;6.68;2.08;;;13.00;99.90;;;;;;4979064;28;20042;-79
2023/10/14 12:00:17;;;;;;;9.45;2.50;;;12.90;99.90;;;;;;4986484;28;20501;-78
2023/10/14 12:02:44;;;;;;;6.63;2.00;;;12.70;99.90;;;;;;4988760;28;20053;-79
2023/10/14 12:05:10;;;;;;;7.65;2.50;;;12.60;99.90;;;;;;5010323;28;20053;-79
2023/10/14 12:07:36;;;;;;;10.95;2.17;;;12.50;99.90;;;;;;4991860;28;20042;-80
2023/10/14 12:10:06;;;;;;;8.05;2.28;;;12.50;99.90;;;;;;4992565;28;20125;-82
2023/10/14 12:12:32;;;;;;;7.95;2.45;;;12.70;99.90;;;;;;5007275;28;20493;-79
2023/10/14 12:15:05;;;;;;;8.13;2.13;;;12.90;99.90;;;;;;5010252;28;20042;-81
2023/10/14 12:17:35;;;;;;;7.63;1.92;;;13.10;99.90;;;;;;5012954;28;20057;-79
2023/10/14 12:20:06;;;;;;;8.00;2.42;;;13.10;99.90;;;;;;4981354;28;20049;-82
2023/10/14 12:22:32;;;;;;;5.57;2.17;;;13.10;99.90;;;;;;5013553;28;20046;-79
2023/10/14 12:24:59;;;;;;;6.22;2.53;;;13.10;99.90;;;;;;4961661;28;20038;-81
2023/10/14 12:27:28;;;;;;;6.93;2.58;;;13.20;99.90;;;;;;5008398;28;20504;-80
2023/10/14 12:29:54;;;;;;;10.52;2.70;;;13.20;99.90;;;;;;4984164;28;20185;-81
2023/10/14 12:32:20;;;;;;;9.90;2.80;;;13.30;99.90;;;;;;5009605;28;20544;-80
2023/10/14 12:34:50;;;;;;;10.43;2.72;;;13.40;99.90;;;;;;4997238;28;20389;-79
2023/10/14 12:37:19;;;;;;;9.68;2.67;;;13.30;99.90;;;;;;5013084;28;20504;-78
2023/10/14 12:42:49;;;;;;;10.18;2.95;;;12.80;99.90;;;;;;4973147;28;20093;-80
2023/10/14 12:45:23;;;;;;;5.95;2.50;;;12.60;99.90;;;;;;4960755;28;20050;-81
2023/10/14 12:47:49;;;;;;;8.25;2.80;;;12.40;99.90;;;;;;4991607;28;20504;-81
2023/10/14 12:50:19;;;;;;;13.93;2.90;;;12.40;99.90;;;;;;4998386;28;20053;-80
2023/10/14 12:52:58;;;;;;;10.18;2.60;;;12.50;99.90;;;;;;5012491;28;20053;-79
2023/10/14 12:55:27;;;;;;;9.90;2.88;;;12.40;99.90;;;;;;4992301;28;20068;-77
2023/10/14 12:57:54;;;;;;;8.75;2.72;;;12.30;99.90;;;;;;5003975;28;20046;-78
2023/10/14 13:00:25;;;;;;;12.90;3.28;;;12.20;99.90;;;;;;4997934;28;20505;-79
2023/10/14 13:02:55;;;;;;;10.77;3.00;;;12.30;99.90;;;;;;4992807;28;20091;-79
2023/10/14 13:05:22;;;;;;;7.00;2.83;;;12.50;99.90;;;;;;5006702;28;20088;-79
2023/10/14 13:07:52;;;;;;;8.82;2.85;;;12.60;99.90;;;;;;4994673;28;20044;-80
2023/10/14 13:10:22;;;;;;;8.20;3.15;;;12.60;99.90;;;;;;4995888;28;20045;-80
2023/10/14 13:12:53;;;;;;;8.52;3.60;;;12.50;99.90;;;;;;4996314;28;20095;-80
2023/10/14 13:15:28;;;;;;;9.68;3.10;;;12.30;99.90;;;;;;5003269;28;20039;-79
2023/10/14 13:17:56;;;;;;;9.88;3.78;;;12.30;99.90;;;;;;5008328;28;20038;-82
2023/10/14 13:20:28;;;;;;;8.13;2.83;;;12.40;99.90;;;;;;5008996;28;20088;-80
2023/10/14 13:23:03;;;;;;;7.00;2.83;;;12.40;99.90;;;;;;5002040;28;20448;-78
2023/10/14 13:25:32;;;;;;;16.75;3.58;;;12.60;99.90;;;;;;4988760;28;20030;-82
2023/10/14 13:27:58;;;;;;;10.07;3.00;;;12.70;99.90;;;;;;4986108;28;20045;-81